Time,TemperatureF,DewpointF,PressureIn,WindDirection,WindDirectionDegrees,WindSpeedMPH,WindSpeedGustMPH,Humidity,HourlyPrecipIn,Conditions,Clouds,dailyrainin,SoftwareType,DateUTC
2013-01-12 00:16:00,49.1,48.0,29.84,ESE,112,2.7,-999.0,96,-99.99,,,0.00,Acu-Link.com,2013-01-12 05:16:00,
2013-01-12 00:31:00,49.1,48.3,29.85,WSW,247,2.7,-999.0,97,-99.99,,,0.00,Acu-Link.com,2013-01-12 05:31:00,
2013-01-12 00:46:00,49.1,48.6,29.85,WSW,247,1.1,-999.0,98,-99.99,,,0.00,Acu-Link.com,2013-01-12 05:46:00,
2013-01-12 01:02:00,48.9,48.4,29.85,SW,225,1.7,-999.0,98,-99.99,,,0.00,Acu-Link.com,2013-01-12 06:02:00,
2013-01-12 01:17:00,49.1,48.6,29.84,WSW,247,3.7,-999.0,98,-99.99,,,0.00,Acu-Link.com,2013-01-12 06:17:00,
2013-01-12 01:32:00,49.5,49.0,29.85,WSW,247,2.7,-999.0,98,-99.99,,,0.00,Acu-Link.com,2013-01-12 06:32:00,
2013-01-12 01:47:00,49.1,48.6,29.85,West,270,2.7,-999.0,98,-99.99,,,0.00,Acu-Link.com,2013-01-12 06:47:00,
2013-01-12 02:02:00,49.1,48.6,29.85,SSE,157,3.7,-999.0,98,-99.99,,,0.00,Acu-Link.com,2013-01-12 07:02:00,
2013-01-12 02:18:00,49.3,48.2,29.85,South,180,5.3,-999.0,96,-99.99,,,0.00,Acu-Link.com,2013-01-12 07:18:00,
2013-01-12 02:33:00,49.5,48.4,29.86,West,270,5.3,-999.0,96,-99.99,,,0.00,Acu-Link.com,2013-01-12 07:33:00,
2013-01-12 02:48:00,49.3,48.2,29.88,South,180,2.2,-999.0,96,-99.99,,,0.00,Acu-Link.com,2013-01-12 07:48:00,
2013-01-12 03:03:00,49.3,48.5,29.87,SSE,157,2.2,-999.0,97,-99.99,,,0.00,Acu-Link.com,2013-01-12 08:03:00,
2013-01-12 03:18:00,49.3,48.5,29.86,WSW,247,3.7,-999.0,97,-99.99,,,0.00,Acu-Link.com,2013-01-12 08:18:00,
2013-01-12 03:34:00,49.1,48.3,29.87,SSW,202,3.2,-999.0,97,-99.99,,,0.00,Acu-Link.com,2013-01-12 08:34:00,
2013-01-12 03:49:00,48.9,48.4,29.86,WSW,247,3.7,-999.0,98,-99.99,,,0.00,Acu-Link.com,2013-01-12 08:49:00,
2013-01-12 04:09:00,49.1,48.6,29.87,SSW,202,4.7,-999.0,98,-99.99,,,0.00,Acu-Link.com,2013-01-12 09:09:00,
2013-01-12 04:25:00,48.0,47.7,29.87,West,270,2.7,-999.0,99,-99.99,,,0.00,Acu-Link.com,2013-01-12 09:25:00,
2013-01-12 04:40:00,46.8,46.5,29.87,West,270,3.2,-999.0,99,-99.99,,,0.00,Acu-Link.com,2013-01-12 09:40:00,
2013-01-12 04:55:00,47.3,47.0,29.87,WSW,247,4.2,-999.0,99,-99.99,,,0.00,Acu-Link.com,2013-01-12 09:55:00,
2013-01-12 05:10:00,47.8,47.5,29.87,SW,225,3.2,-999.0,99,-99.99,,,0.00,Acu-Link.com,2013-01-12 10:10:00,
2013-01-12 05:26:00,48.6,48.3,29.88,WSW,247,4.2,-999.0,99,-99.99,,,0.00,Acu-Link.com,2013-01-12 10:26:00,
2013-01-12 05:41:00,49.1,48.8,29.87,WSW,247,5.8,-999.0,99,-99.99,,,0.00,Acu-Link.com,2013-01-12 10:41:00,
2013-01-12 05:56:00,49.5,49.2,29.88,West,270,3.2,-999.0,99,-99.99,,,0.00,Acu-Link.com,2013-01-12 10:56:00,
2013-01-12 06:11:00,49.5,49.2,29.88,WNW,292,2.2,-999.0,99,-99.99,,,0.00,Acu-Link.com,2013-01-12 11:11:00,
2013-01-12 06:26:00,49.6,49.3,29.88,West,270,2.2,-999.0,99,-99.99,,,0.00,Acu-Link.com,2013-01-12 11:26:00,
2013-01-12 06:42:00,49.6,49.3,29.89,SSW,202,5.8,-999.0,99,-99.99,,,0.00,Acu-Link.com,2013-01-12 11:42:00,
2013-01-12 06:57:00,50.0,49.7,29.88,SW,225,2.7,-999.0,99,-99.99,,,0.00,Acu-Link.com,2013-01-12 11:57:00,
2013-01-12 07:12:00,49.8,49.5,29.88,West,270,2.2,-999.0,99,-99.99,,,0.00,Acu-Link.com,2013-01-12 12:12:00,
2013-01-12 07:27:00,49.8,49.5,29.88,SSW,202,4.2,-999.0,99,-99.99,,,0.00,Acu-Link.com,2013-01-12 12:27:00,
2013-01-12 07:43:00,50.0,49.7,29.89,NW,315,1.7,-999.0,99,-99.99,,,0.00,Acu-Link.com,2013-01-12 12:43:00,
2013-01-12 07:58:00,50.4,50.1,29.89,SW,225,3.2,-999.0,99,-99.99,,,0.00,Acu-Link.com,2013-01-12 12:58:00,
2013-01-12 08:13:00,50.2,49.9,29.90,WNW,292,3.2,-999.0,99,-99.99,,,0.00,Acu-Link.com,2013-01-12 13:13:00,
2013-01-12 08:28:00,50.2,49.9,29.90,West,270,2.7,-999.0,99,-99.99,,,0.00,Acu-Link.com,2013-01-12 13:28:00,
2013-01-12 08:44:00,50.5,50.2,29.91,WSW,247,4.7,-999.0,99,-99.99,,,0.00,Acu-Link.com,2013-01-12 13:44:00,
2013-01-12 08:59:00,50.9,50.6,29.92,SSW,202,3.7,-999.0,99,-99.99,,,0.00,Acu-Link.com,2013-01-12 13:59:00,
2013-01-12 09:14:00,51.3,51.0,29.92,SSW,202,3.2,-999.0,99,-99.99,,,0.00,Acu-Link.com,2013-01-12 14:14:00,
2013-01-12 09:29:00,51.8,51.5,29.92,South,180,2.2,-999.0,99,-99.99,,,0.00,Acu-Link.com,2013-01-12 14:29:00,
2013-01-12 09:44:00,52.5,52.2,29.92,West,270,5.8,-999.0,99,-99.99,,,0.00,Acu-Link.com,2013-01-12 14:44:00,
2013-01-12 10:00:00,52.9,52.6,29.92,South,180,3.7,-999.0,99,-99.99,,,0.00,Acu-Link.com,2013-01-12 15:00:00,
2013-01-12 10:15:00,54.1,53.3,29.94,SW,225,3.7,-999.0,97,-99.99,,,0.00,Acu-Link.com,2013-01-12 15:15:00,
2013-01-12 10:30:00,55.2,53.5,29.93,WSW,247,3.2,-999.0,94,-99.99,,,0.00,Acu-Link.com,2013-01-12 15:30:00,
2013-01-12 10:45:00,55.8,53.5,29.93,South,180,2.7,-999.0,92,-99.99,,,0.00,Acu-Link.com,2013-01-12 15:45:00,
2013-01-12 11:01:00,56.3,53.4,29.94,SW,225,6.3,-999.0,90,-99.99,,,0.00,Acu-Link.com,2013-01-12 16:01:00,
2013-01-12 11:16:00,56.5,53.6,29.93,South,180,5.3,-999.0,90,-99.99,,,0.00,Acu-Link.com,2013-01-12 16:16:00,
2013-01-12 11:31:00,56.8,53.9,29.91,South,180,4.7,-999.0,90,-99.99,,,0.00,Acu-Link.com,2013-01-12 16:31:00,
2013-01-12 11:46:00,56.8,53.6,29.90,WSW,247,5.3,-999.0,89,-99.99,,,0.00,Acu-Link.com,2013-01-12 16:46:00,
2013-01-12 12:01:00,57.7,54.2,29.91,SW,225,2.2,-999.0,88,-99.99,,,0.00,Acu-Link.com,2013-01-12 17:01:00,
2013-01-12 12:17:00,57.9,54.1,29.90,West,270,9.4,-999.0,87,-99.99,,,0.00,Acu-Link.com,2013-01-12 17:17:00,
2013-01-12 12:32:00,58.8,54.3,29.89,SSW,202,4.2,-999.0,85,-99.99,,,0.00,Acu-Link.com,2013-01-12 17:32:00,
2013-01-12 12:47:00,58.8,54.0,29.89,WSW,247,2.7,-999.0,84,-99.99,,,0.00,Acu-Link.com,2013-01-12 17:47:00,
2013-01-12 13:02:00,58.5,54.0,29.88,NNW,337,0.0,-999.0,85,-99.99,,,0.00,Acu-Link.com,2013-01-12 18:02:00,
2013-01-12 13:17:00,58.5,53.7,29.88,South,180,2.7,-999.0,84,-99.99,,,0.00,Acu-Link.com,2013-01-12 18:17:00,
2013-01-12 13:33:00,59.0,53.8,29.88,SW,225,2.7,-999.0,83,-99.99,,,0.00,Acu-Link.com,2013-01-12 18:33:00,
2013-01-12 13:48:00,59.2,54.0,29.88,WSW,247,4.2,-999.0,83,-99.99,,,0.00,Acu-Link.com,2013-01-12 18:48:00,
2013-01-12 14:03:00,59.0,53.8,29.88,WSW,247,2.7,-999.0,83,-99.99,,,0.00,Acu-Link.com,2013-01-12 19:03:00,
2013-01-12 14:18:00,59.0,53.8,29.88,ESE,112,4.2,-999.0,83,-99.99,,,0.00,Acu-Link.com,2013-01-12 19:18:00,
2013-01-12 14:33:00,59.0,53.8,29.89,West,270,5.3,-999.0,83,-99.99,,,0.00,Acu-Link.com,2013-01-12 19:33:00,
2013-01-12 14:49:00,58.6,53.5,29.88,SSW,202,3.7,-999.0,83,-99.99,,,0.00,Acu-Link.com,2013-01-12 19:49:00,
2013-01-12 15:04:00,59.0,53.8,29.88,South,180,5.3,-999.0,83,-99.99,,,0.00,Acu-Link.com,2013-01-12 20:04:00,
2013-01-12 15:19:00,58.6,53.8,29.89,WNW,292,2.7,-999.0,84,-99.99,,,0.00,Acu-Link.com,2013-01-12 20:19:00,
2013-01-12 15:34:00,58.6,53.8,29.89,West,270,2.2,-999.0,84,-99.99,,,0.00,Acu-Link.com,2013-01-12 20:34:00,
2013-01-12 15:50:00,58.6,53.5,29.89,West,270,4.2,-999.0,83,-99.99,,,0.00,Acu-Link.com,2013-01-12 20:50:00,
2013-01-12 16:05:00,59.2,53.7,29.90,West,270,4.2,-999.0,82,-99.99,,,0.00,Acu-Link.com,2013-01-12 21:05:00,
2013-01-12 16:20:00,58.3,53.5,29.89,SSE,157,1.7,-999.0,84,-99.99,,,0.00,Acu-Link.com,2013-01-12 21:20:00,
2013-01-12 16:35:00,57.6,53.4,29.91,SSW,202,8.3,-999.0,86,-99.99,,,0.00,Acu-Link.com,2013-01-12 21:35:00,
2013-01-12 16:50:00,57.2,53.4,29.90,South,180,1.1,-999.0,87,-99.99,,,0.00,Acu-Link.com,2013-01-12 21:50:00,
2013-01-12 17:06:00,56.5,53.3,29.91,SSW,202,2.7,-999.0,89,-99.99,,,0.00,Acu-Link.com,2013-01-12 22:06:00,
2013-01-12 17:21:00,55.8,53.2,29.90,SW,225,0.0,-999.0,91,-99.99,,,0.00,Acu-Link.com,2013-01-12 22:21:00,
2013-01-12 17:52:00,53.4,52.0,29.89,SSE,157,0.0,-999.0,95,-99.99,,,0.00,Acu-Link.com,2013-01-12 22:52:00,
2013-01-12 18:07:00,52.2,51.1,29.89,SSE,157,0.0,-999.0,96,-99.99,,,0.00,Acu-Link.com,2013-01-12 23:07:00,
2013-01-12 18:22:00,50.9,50.4,29.88,SSE,157,0.0,-999.0,98,-99.99,,,0.00,Acu-Link.com,2013-01-12 23:22:00,
2013-01-12 18:37:00,51.6,51.3,29.87,SSE,157,0.0,-999.0,99,-99.99,,,0.00,Acu-Link.com,2013-01-12 23:37:00,
2013-01-12 18:52:00,52.0,51.7,29.87,SSE,157,0.0,-999.0,99,-99.99,,,0.00,Acu-Link.com,2013-01-12 23:52:00,
2013-01-12 19:08:00,52.9,52.6,29.88,NW,315,1.1,-999.0,99,-99.99,,,0.00,Acu-Link.com,2013-01-13 00:08:00,
2013-01-12 19:23:00,53.2,52.9,29.87,ENE,67,0.0,-999.0,99,-99.99,,,0.00,Acu-Link.com,2013-01-13 00:23:00,
2013-01-12 19:38:00,53.8,53.5,29.87,West,270,1.7,-999.0,99,-99.99,,,0.00,Acu-Link.com,2013-01-13 00:38:00,
2013-01-12 19:53:00,54.7,54.4,29.88,NE,45,1.7,-999.0,99,-99.99,,,0.00,Acu-Link.com,2013-01-13 00:53:00,
2013-01-12 20:08:00,55.0,54.7,29.86,WNW,292,0.0,-999.0,99,-99.99,,,0.00,Acu-Link.com,2013-01-13 01:08:00,
2013-01-12 20:24:00,55.0,54.7,29.86,WNW,292,0.0,-999.0,99,-99.99,,,0.00,Acu-Link.com,2013-01-13 01:24:00,
2013-01-12 20:39:00,55.0,54.7,29.86,NW,315,0.0,-999.0,99,-99.99,,,0.00,Acu-Link.com,2013-01-13 01:39:00,
2013-01-12 20:54:00,55.4,55.1,29.85,NE,45,2.2,-999.0,99,-99.99,,,0.00,Acu-Link.com,2013-01-13 01:54:00,
2013-01-12 21:09:00,55.6,55.0,29.84,West,270,1.1,-999.0,98,-99.99,,,0.00,Acu-Link.com,2013-01-13 02:09:00,
2013-01-12 21:24:00,56.3,55.7,29.83,West,270,1.7,-999.0,98,-99.99,,,0.00,Acu-Link.com,2013-01-13 02:24:00,
2013-01-12 21:40:00,56.5,55.7,29.82,West,270,0.0,-999.0,97,-99.99,,,0.00,Acu-Link.com,2013-01-13 02:40:00,
2013-01-12 21:55:00,56.7,55.9,29.82,WNW,292,2.2,-999.0,97,-99.99,,,0.00,Acu-Link.com,2013-01-13 02:55:00,
2013-01-12 22:10:00,56.5,55.9,29.81,West,270,0.0,-999.0,98,-99.99,,,0.00,Acu-Link.com,2013-01-13 03:10:00,
2013-01-12 22:25:00,56.3,55.7,29.80,NE,45,1.1,-999.0,98,-99.99,,,0.00,Acu-Link.com,2013-01-13 03:25:00,
2013-01-12 22:40:00,56.1,55.5,29.79,NW,315,2.2,-999.0,98,-99.99,,,0.00,Acu-Link.com,2013-01-13 03:40:00,
2013-01-12 22:56:00,55.8,55.5,29.78,NNE,22,2.2,-999.0,99,-99.99,,,0.00,Acu-Link.com,2013-01-13 03:56:00,
2013-01-12 23:11:00,55.4,55.1,29.78,NNW,337,3.2,-999.0,99,-99.99,,,0.00,Acu-Link.com,2013-01-13 04:11:00,
2013-01-12 23:26:00,55.6,55.3,29.76,NNW,337,2.2,-999.0,99,-99.99,,,0.00,Acu-Link.com,2013-01-13 04:26:00,
2013-01-12 23:41:00,55.2,54.9,29.77,NNE,22,2.7,-999.0,99,-99.99,,,0.00,Acu-Link.com,2013-01-13 04:41:00,
2013-01-12 23:57:00,55.2,54.9,29.75,NNE,22,2.7,-999.0,99,-99.99,,,0.00,Acu-Link.com,2013-01-13 04:57:00,